Time;durP1;ratioP1;P1;durP2;ratioP2;P2;SDS_P1;SDS_P2;PMS_P1;PMS_P2;Temp;Humidity;BMP_temperature;BMP_pressure;BME280_temperature;BME280_humidity;BME280_pressure;Samples;Min_cycle;Max_cycle;Signal;HPM_P1;HPM_P2
2022/12/01 00:00:55;;;;;;;4.40;4.20;;;4.50;99.90;;;;;;6261510;28;20272;-69
2022/12/01 00:03:59;;;;;;;4.97;4.47;;;4.40;99.90;;;;;;6260875;28;20293;-69
2022/12/01 00:07:04;;;;;;;5.30;4.80;;;4.30;99.90;;;;;;6261374;28;20296;-69
2022/12/01 00:10:27;;;;;;;5.20;4.80;;;4.40;99.90;;;;;;6260642;28;20304;-70
2022/12/01 00:13:32;;;;;;;5.43;4.93;;;4.40;99.90;;;;;;6259664;28;20303;-70
2022/12/01 00:16:39;;;;;;;5.20;4.90;;;4.30;99.90;;;;;;6260873;28;20565;-70
2022/12/01 00:19:44;;;;;;;5.23;4.83;;;4.40;99.90;;;;;;6260248;28;20311;-70
2022/12/01 00:22:49;;;;;;;5.73;5.27;;;4.40;99.90;;;;;;6260664;28;20265;-69
2022/12/01 00:25:55;;;;;;;5.10;4.67;;;4.40;99.90;;;;;;6261019;28;20289;-69
2022/12/01 00:29:00;;;;;;;5.10;4.80;;;4.40;99.90;;;;;;6259982;28;20298;-70
2022/12/01 00:32:06;;;;;;;5.73;5.23;;;4.40;99.90;;;;;;6260533;28;20265;-69
2022/12/01 00:35:14;;;;;;;4.80;4.40;;;4.40;99.90;;;;;;6260100;28;20475;-70
2022/12/01 00:38:19;;;;;;;5.30;4.87;;;4.40;99.90;;;;;;6260156;28;20576;-69
2022/12/01 00:41:26;;;;;;;4.37;4.10;;;4.40;99.90;;;;;;6260680;28;20273;-69
2022/12/01 00:44:31;;;;;;;5.87;5.37;;;4.50;99.90;;;;;;6259834;28;20599;-69
2022/12/01 00:47:35;;;;;;;5.00;4.73;;;4.50;99.90;;;;;;6260148;28;20472;-69
2022/12/01 00:50:40;;;;;;;5.33;5.00;;;4.40;99.90;;;;;;6262859;28;20297;-69
2022/12/01 00:53:45;;;;;;;5.30;4.80;;;4.40;99.90;;;;;;6265115;28;20487;-70
2022/12/01 00:56:51;;;;;;;5.33;4.90;;;4.40;99.90;;;;;;6265457;28;20270;-70
2022/12/01 00:59:56;;;;;;;3.63;3.43;;;4.50;99.90;;;;;;6264980;28;20576;-69
2022/12/01 01:03:01;;;;;;;3.70;3.50;;;4.40;99.90;;;;;;6264449;28;20359;-69
2022/12/01 01:06:09;;;;;;;3.33;3.23;;;4.50;99.90;;;;;;6265270;28;20290;-69
2022/12/01 01:09:15;;;;;;;3.47;3.27;;;4.50;99.90;;;;;;6264243;28;20302;-69
2022/12/01 01:12:21;;;;;;;2.87;2.83;;;4.50;99.90;;;;;;6264970;28;20267;-69
2022/12/01 01:15:25;;;;;;;3.47;3.37;;;4.50;99.90;;;;;;6264673;28;20353;-70
2022/12/01 01:18:31;;;;;;;3.40;3.30;;;4.50;99.90;;;;;;6264133;28;20297;-70
2022/12/01 01:21:35;;;;;;;2.97;2.90;;;4.50;99.90;;;;;;6264977;28;20265;-70
2022/12/01 01:24:40;;;;;;;3.03;2.93;;;4.50;99.90;;;;;;6264234;28;20301;-69
2022/12/01 01:27:46;;;;;;;3.27;3.07;;;4.50;99.90;;;;;;6264417;28;20288;-69
2022/12/01 01:30:51;;;;;;;2.97;2.87;;;4.50;99.90;;;;;;6264764;28;20553;-70
2022/12/01 01:33:57;;;;;;;3.30;3.20;;;4.50;99.90;;;;;;6264221;28;20294;-70
2022/12/01 01:37:01;;;;;;;3.07;2.97;;;4.50;99.90;;;;;;6264527;28;20274;-70
2022/12/01 01:40:08;;;;;;;2.73;2.70;;;4.40;99.90;;;;;;6264028;28;20297;-70
2022/12/01 01:43:17;;;;;;;2.53;2.53;;;4.40;99.90;;;;;;6278859;28;20297;-69
2022/12/01 01:46:24;;;;;;;3.00;2.90;;;4.50;99.90;;;;;;6288921;28;20287;-70
2022/12/01 01:49:29;;;;;;;2.90;2.80;;;4.50;99.90;;;;;;6288735;28;20301;-70
2022/12/01 01:52:34;;;;;;;2.57;2.47;;;4.50;99.90;;;;;;6289011;28;20442;-70
2022/12/01 01:55:39;;;;;;;2.80;2.80;;;4.50;99.90;;;;;;6288558;28;20320;-69
2022/12/01 01:58:45;;;;;;;2.90;2.80;;;4.50;99.90;;;;;;6288451;28;20304;-69
2022/12/01 02:01:58;;;;;;;2.83;2.73;;;4.50;99.90;;;;;;6288932;28;20264;-70
2022/12/01 02:05:09;;;;;;;3.03;2.90;;;4.50;99.90;;;;;;6288216;28;20293;-69
2022/12/01 02:08:15;;;;;;;3.20;3.00;;;4.50;99.90;;;;;;6288513;28;20296;-69
2022/12/01 02:11:59;;;;;;;3.07;2.97;;;4.60;99.90;;;;;;6288637;28;20256;-69
2022/12/01 02:15:17;;;;;;;2.80;2.80;;;4.60;99.90;;;;;;6288011;28;20308;-69
2022/12/01 02:18:26;;;;;;;3.00;2.80;;;4.70;99.90;;;;;;6288179;28;20297;-69
2022/12/01 02:21:44;;;;;;;3.37;3.27;;;4.60;99.90;;;;;;6288268;28;20270;-69
2022/12/01 02:25:19;;;;;;;3.13;3.03;;;4.60;99.90;;;;;;6287851;28;20320;-69
2022/12/01 02:28:46;;;;;;;2.90;2.80;;;4.60;99.90;;;;;;6287557;28;20356;-69
2022/12/01 02:31:58;;;;;;;3.40;3.30;;;4.60;99.90;;;;;;6287561;28;20654;-69
2022/12/01 02:35:12;;;;;;;3.37;3.27;;;4.70;99.90;;;;;;6287481;28;20298;-69
2022/12/01 02:38:24;;;;;;;3.50;3.30;;;4.60;99.90;;;;;;6287229;28;20301;-70
2022/12/01 02:41:33;;;;;;;3.30;3.20;;;4.60;99.90;;;;;;6288155;28;20279;-69
2022/12/01 02:44:42;;;;;;;3.50;3.40;;;4.60;99.90;;;;;;6287107;28;20388;-68
2022/12/01 02:47:50;;;;;;;3.17;3.07;;;4.70;99.90;;;;;;6287137;28;20296;-69
2022/12/01 02:50:57;;;;;;;3.23;3.13;;;4.60;99.90;;;;;;6287788;28;20264;-69
2022/12/01 02:54:03;;;;;;;3.50;3.40;;;4.70;99.90;;;;;;6286995;28;20484;-69
2022/12/01 02:57:11;;;;;;;3.20;3.10;;;4.70;99.90;;;;;;6287768;28;20273;-69
2022/12/01 03:00:17;;;;;;;3.33;3.23;;;4.60;99.90;;;;;;6286995;28;20311;-69
2022/12/01 03:03:47;;;;;;;3.53;3.43;;;4.60;99.90;;;;;;6286902;28;20287;-70
2022/12/01 03:06:59;;;;;;;3.97;3.77;;;4.60;99.90;;;;;;6286820;28;20288;-70
2022/12/01 03:10:13;;;;;;;3.87;3.57;;;4.70;99.90;;;;;;6286929;28;20293;-70
2022/12/01 03:13:26;;;;;;;3.83;3.73;;;4.60;99.90;;;;;;6285809;28;20293;-70
2022/12/01 03:16:40;;;;;;;3.67;3.57;;;4.60;99.90;;;;;;6287281;28;20273;-70
2022/12/01 03:19:50;;;;;;;3.37;3.27;;;4.70;99.90;;;;;;6286315;28;20302;-70
2022/12/01 03:23:02;;;;;;;3.43;3.13;;;4.70;99.90;;;;;;6286611;28;20269;-69
2022/12/01 03:26:09;;;;;;;3.63;3.43;;;4.70;99.90;;;;;;6286355;28;20272;-69
2022/12/01 03:29:20;;;;;;;3.70;3.50;;;4.70;99.90;;;;;;6286157;28;20297;-69
2022/12/01 03:32:30;;;;;;;3.87;3.67;;;4.70;99.90;;;;;;6286910;28;20277;-69
2022/12/01 03:35:40;;;;;;;3.80;3.70;;;4.70;99.90;;;;;;6286233;28;20309;-69
2022/12/01 03:38:49;;;;;;;3.93;3.67;;;4.70;99.90;;;;;;6285866;28;20302;-70
2022/12/01 03:41:59;;;;;;;4.10;3.80;;;4.60;99.90;;;;;;6286529;28;20545;-70
2022/12/01 03:45:08;;;;;;;3.73;3.63;;;4.70;99.90;;;;;;6286395;28;20298;-70
2022/12/01 03:48:12;;;;;;;3.90;3.70;;;4.70;99.90;;;;;;6285775;28;20296;-69
2022/12/01 03:51:25;;;;;;;3.80;3.60;;;4.60;99.90;;;;;;6286075;28;20269;-70
2022/12/01 03:54:44;;;;;;;4.00;3.70;;;4.60;99.90;;;;;;6285778;28;20572;-69
2022/12/01 03:57:54;;;;;;;3.73;3.53;;;4.60;99.90;;;;;;6285625;28;20313;-69
2022/12/01 04:00:59;;;;;;;3.97;3.73;;;4.70;99.90;;;;;;6286493;28;20293;-69
2022/12/01 04:04:06;;;;;;;3.57;3.47;;;4.70;99.90;;;;;;6273107;28;20305;-69
2022/12/01 04:07:13;;;;;;;4.00;3.70;;;4.70;99.90;;;;;;6269032;28;20275;-69
2022/12/01 04:10:18;;;;;;;4.00;3.70;;;4.70;99.90;;;;;;6285558;28;20301;-70
2022/12/01 04:13:22;;;;;;;3.90;3.77;;;4.70;99.90;;;;;;6261458;28;20289;-69
2022/12/01 04:16:26;;;;;;;3.40;3.30;;;4.70;99.90;;;;;;6260990;28;20283;-70
2022/12/01 04:19:31;;;;;;;3.60;3.50;;;4.80;99.90;;;;;;6273287;28;20292;-70
2022/12/01 04:22:38;;;;;;;3.60;3.50;;;4.80;99.90;;;;;;6285368;28;20471;-70
2022/12/01 04:25:42;;;;;;;3.87;3.67;;;4.70;99.90;;;;;;6284434;28;20291;-70
2022/12/01 04:28:47;;;;;;;3.90;3.50;;;4.70;99.90;;;;;;6285386;28;20300;-70
2022/12/01 04:31:52;;;;;;;3.93;3.73;;;4.70;99.90;;;;;;6285948;28;20265;-70
2022/12/01 04:34:57;;;;;;;4.00;3.80;;;4.70;99.90;;;;;;6284747;28;20296;-70
2022/12/01 04:38:03;;;;;;;3.97;3.70;;;4.70;99.90;;;;;;6285196;28;20263;-70
2022/12/01 04:41:11;;;;;;;3.30;3.20;;;4.70;99.90;;;;;;6285584;28;20500;-70
2022/12/01 04:44:15;;;;;;;3.77;3.47;;;4.70;99.90;;;;;;6274357;28;20302;-70
2022/12/01 04:47:20;;;;;;;3.70;3.57;;;4.70;99.90;;;;;;6261029;28;20272;-69
2022/12/01 04:50:25;;;;;;;3.60;3.50;;;4.70;99.90;;;;;;6260716;28;20307;-70
2022/12/01 04:53:31;;;;;;;3.87;3.67;;;4.60;99.90;;;;;;6260641;28;20305;-70
2022/12/01 04:56:36;;;;;;;4.33;4.10;;;4.60;99.90;;;;;;6260881;28;20345;-70
2022/12/01 04:59:41;;;;;;;4.07;3.67;;;4.50;99.90;;;;;;6260252;28;20310;-69
2022/12/01 05:02:45;;;;;;;3.87;3.77;;;4.60;99.90;;;;;;6260849;28;20265;-69
2022/12/01 05:05:50;;;;;;;4.40;4.20;;;4.60;99.90;;;;;;6260218;28;20295;-69
2022/12/01 05:08:59;;;;;;;3.80;3.70;;;4.60;99.90;;;;;;6259082;28;20300;-70
2022/12/01 05:12:04;;;;;;;4.43;4.17;;;4.60;99.90;;;;;;6275442;28;20264;-70
2022/12/01 05:15:11;;;;;;;4.10;3.90;;;4.60;99.90;;;;;;6284743;28;20558;-69
2022/12/01 05:18:15;;;;;;;4.17;3.97;;;4.50;99.90;;;;;;6279622;28;20395;-69
2022/12/01 05:21:19;;;;;;;4.00;3.80;;;4.50;99.90;;;;;;6260500;28;20275;-70
2022/12/01 05:24:25;;;;;;;3.57;3.37;;;4.60;99.90;;;;;;6259847;28;20459;-69
2022/12/01 05:27:30;;;;;;;3.73;3.60;;;4.50;99.90;;;;;;6260661;28;20348;-69
2022/12/01 05:30:35;;;;;;;4.13;3.93;;;4.40;99.90;;;;;;6260237;28;20306;-69
2022/12/01 05:33:39;;;;;;;3.93;3.73;;;4.50;99.90;;;;;;6259808;28;20293;-70
2022/12/01 05:36:44;;;;;;;4.13;3.83;;;4.40;99.90;;;;;;6262495;28;20289;-70
2022/12/01 05:39:50;;;;;;;3.90;3.60;;;4.50;99.90;;;;;;6264221;28;20296;-70
2022/12/01 05:42:55;;;;;;;4.00;3.90;;;4.50;99.90;;;;;;6264852;28;20479;-69
2022/12/01 05:45:59;;;;;;;4.53;4.13;;;4.50;99.90;;;;;;6263437;28;20297;-69
2022/12/01 05:49:05;;;;;;;6.43;4.07;;;4.50;99.90;;;;;;6263670;28;20492;-69
2022/12/01 05:52:13;;;;;;;7.43;4.23;;;4.60;99.90;;;;;;6264434;28;20270;-69
2022/12/01 05:55:19;;;;;;;6.57;3.80;;;4.60;99.90;;;;;;6282933;28;20292;-70
2022/12/01 05:58:24;;;;;;;4.60;3.83;;;4.60;99.90;;;;;;6285026;28;20293;-69
2022/12/01 06:01:29;;;;;;;3.60;3.30;;;4.50;99.90;;;;;;6264168;28;20273;-69
2022/12/01 06:04:33;;;;;;;4.00;3.47;;;4.50;99.90;;;;;;6275947;28;20467;-69
2022/12/01 06:07:39;;;;;;;5.07;3.80;;;4.60;99.90;;;;;;6288630;28;20273;-69
2022/12/01 06:10:46;;;;;;;3.50;3.40;;;4.50;99.90;;;;;;6265381;28;20297;-69
2022/12/01 06:13:50;;;;;;;7.00;3.53;;;4.50;99.90;;;;;;6263509;28;20326;-69
2022/12/01 06:16:55;;;;;;;11.67;3.70;;;4.40;99.90;;;;;;6264201;28;20269;-70
2022/12/01 06:20:00;;;;;;;10.93;4.00;;;4.50;99.90;;;;;;6263370;28;20305;-70
2022/12/01 06:23:05;;;;;;;7.43;4.30;;;4.60;99.90;;;;;;6262587;28;20270;-70
2022/12/01 06:26:12;;;;;;;20.30;5.77;;;4.60;99.90;;;;;;6263766;28;20358;-69
2022/12/01 06:29:17;;;;;;;28.20;6.33;;;4.50;99.90;;;;;;6263283;28;20298;-69
2022/12/01 06:32:21;;;;;;;6.87;4.67;;;4.50;99.90;;;;;;6263376;28;20269;-70
2022/12/01 06:35:26;;;;;;;19.27;4.90;;;4.60;99.90;;;;;;6263331;28;20293;-70
2022/12/01 06:38:33;;;;;;;11.60;4.03;;;4.70;99.90;;;;;;6262980;28;20307;-70
2022/12/01 06:41:39;;;;;;;9.20;4.53;;;4.60;99.90;;;;;;6263066;28;20269;-69
2022/12/01 06:44:45;;;;;;;17.83;4.83;;;4.60;99.90;;;;;;6262685;28;20301;-70
2022/12/01 06:47:54;;;;;;;10.43;4.20;;;4.70;99.90;;;;;;6262254;28;20267;-71
2022/12/01 06:50:58;;;;;;;5.40;3.80;;;4.70;99.90;;;;;;6287055;28;20320;-70
2022/12/01 06:54:04;;;;;;;7.17;3.57;;;4.60;99.90;;;;;;6287310;28;20325;-70
2022/12/01 06:57:13;;;;;;;6.27;3.13;;;4.60;99.90;;;;;;6287349;28;20270;-70
2022/12/01 07:00:19;;;;;;;6.83;3.83;;;4.60;99.90;;;;;;6286164;28;20300;-71
2022/12/01 07:03:24;;;;;;;3.63;3.40;;;4.50;99.90;;;;;;6286748;28;20296;-69
2022/12/01 07:06:30;;;;;;;3.53;3.33;;;4.60;99.90;;;;;;6286667;28;20487;-69
2022/12/01 07:09:35;;;;;;;3.93;3.70;;;4.40;99.90;;;;;;6286133;28;20306;-69
2022/12/01 07:12:41;;;;;;;3.73;3.43;;;4.50;99.90;;;;;;6286554;28;20553;-69
2022/12/01 07:15:45;;;;;;;3.53;3.43;;;4.40;99.90;;;;;;6263815;28;20289;-69
2022/12/01 07:18:51;;;;;;;3.20;3.10;;;4.50;99.90;;;;;;6261407;28;20297;-69
2022/12/01 07:21:56;;;;;;;3.70;3.30;;;4.50;99.90;;;;;;6262246;28;20564;-69
2022/12/01 07:25:00;;;;;;;3.90;3.70;;;4.50;99.90;;;;;;6261360;28;20301;-69
2022/12/01 07:28:07;;;;;;;3.80;3.60;;;4.50;99.90;;;;;;6260216;28;20269;-69
2022/12/01 07:31:14;;;;;;;4.20;4.00;;;4.60;99.90;;;;;;6262409;28;20425;-69
2022/12/01 07:34:19;;;;;;;4.27;3.80;;;4.60;99.90;;;;;;6261471;28;20470;-70
2022/12/01 07:37:24;;;;;;;4.00;3.90;;;4.60;99.90;;;;;;6262080;28;20274;-69
2022/12/01 07:40:29;;;;;;;4.10;3.90;;;4.60;99.90;;;;;;6261785;28;20480;-69
2022/12/01 07:43:35;;;;;;;4.10;3.80;;;4.60;99.90;;;;;;6276450;28;20294;-69
2022/12/01 07:46:40;;;;;;;3.83;3.70;;;4.60;99.90;;;;;;6286165;28;20275;-70
2022/12/01 07:49:45;;;;;;;4.03;3.77;;;4.60;99.90;;;;;;6286009;28;20297;-69
2022/12/01 07:52:50;;;;;;;3.83;3.63;;;4.60;99.90;;;;;;6286369;28;20280;-69
2022/12/01 07:55:55;;;;;;;4.40;4.00;;;4.70;99.90;;;;;;6286074;28;20317;-70
2022/12/01 07:59:01;;;;;;;4.90;4.00;;;4.60;99.90;;;;;;6285335;28;20293;-70
2022/12/01 08:02:06;;;;;;;6.17;4.60;;;4.70;99.90;;;;;;6286067;28;20270;-70
2022/12/01 08:05:11;;;;;;;4.10;3.80;;;4.70;99.90;;;;;;6285499;28;20468;-70
2022/12/01 08:08:16;;;;;;;4.50;4.00;;;4.70;99.90;;;;;;6285796;28;20263;-70
2022/12/01 08:11:24;;;;;;;5.37;4.10;;;4.70;99.90;;;;;;6285462;28;20277;-70
2022/12/01 08:14:30;;;;;;;4.07;3.87;;;4.60;99.90;;;;;;6285574;28;20301;-70
2022/12/01 08:17:34;;;;;;;4.70;4.30;;;4.70;99.90;;;;;;6286081;28;20371;-69
2022/12/01 08:20:39;;;;;;;4.80;4.23;;;4.70;99.90;;;;;;6285384;28;20302;-69
2022/12/01 08:23:44;;;;;;;4.30;3.97;;;4.80;99.90;;;;;;6285363;28;20340;-69
2022/12/01 08:26:49;;;;;;;5.10;4.17;;;4.70;99.90;;;;;;6285375;28;20266;-69
2022/12/01 08:29:56;;;;;;;4.30;4.00;;;4.70;99.90;;;;;;6285323;28;20304;-69
2022/12/01 08:33:00;;;;;;;4.73;4.27;;;4.70;99.90;;;;;;6285438;28;20454;-69
2022/12/01 08:36:06;;;;;;;7.17;4.47;;;4.70;99.90;;;;;;6285598;28;20302;-70
2022/12/01 08:39:11;;;;;;;5.13;4.33;;;4.80;99.90;;;;;;6285266;28;20605;-70
2022/12/01 08:42:16;;;;;;;4.53;4.23;;;4.80;99.90;;;;;;6285240;28;20581;-69
2022/12/01 08:45:22;;;;;;;4.47;4.07;;;4.80;99.90;;;;;;6304769;28;20363;-69
2022/12/01 08:48:28;;;;;;;4.20;4.00;;;4.80;99.90;;;;;;6309531;28;20292;-69
2022/12/01 08:51:34;;;;;;;7.47;4.37;;;4.90;99.90;;;;;;6310398;28;20283;-69
2022/12/01 08:54:39;;;;;;;4.90;3.80;;;4.70;99.90;;;;;;6309998;28;20293;-69
2022/12/01 08:57:44;;;;;;;4.47;4.20;;;4.80;99.90;;;;;;6310554;28;20264;-68
2022/12/01 09:00:50;;;;;;;4.73;4.33;;;4.80;99.90;;;;;;6309909;28;20303;-69
2022/12/01 09:04:07;;;;;;;4.60;4.40;;;4.80;99.90;;;;;;6309460;28;20304;-69
2022/12/01 09:07:13;;;;;;;5.10;4.60;;;4.80;99.90;;;;;;6310408;28;20459;-69
2022/12/01 09:10:18;;;;;;;4.30;4.10;;;4.80;99.90;;;;;;6309369;28;20296;-69
2022/12/01 09:13:23;;;;;;;4.67;4.30;;;4.90;99.90;;;;;;6289694;28;20294;-69
2022/12/01 09:16:29;;;;;;;4.43;4.17;;;4.90;99.90;;;;;;6290064;28;20266;-69
2022/12/01 09:19:35;;;;;;;6.77;4.40;;;4.70;99.90;;;;;;6289550;28;20305;-69
2022/12/01 09:22:39;;;;;;;4.87;4.67;;;4.80;99.90;;;;;;6289863;28;20268;-69
2022/12/01 09:25:44;;;;;;;4.97;4.57;;;4.80;99.90;;;;;;6289258;28;20298;-68
2022/12/01 09:28:53;;;;;;;4.70;4.40;;;4.80;99.90;;;;;;6288842;28;20313;-69
2022/12/01 09:32:00;;;;;;;4.60;4.30;;;4.90;99.90;;;;;;6289653;28;20302;-69
2022/12/01 09:35:05;;;;;;;4.50;4.17;;;4.90;99.90;;;;;;6289375;28;20292;-69
2022/12/01 09:38:11;;;;;;;4.37;4.07;;;4.90;99.90;;;;;;6288832;28;20554;-69
2022/12/01 09:41:22;;;;;;;5.23;4.53;;;4.80;99.90;;;;;;6289705;28;20549;-69
2022/12/01 09:44:40;;;;;;;4.27;4.07;;;4.90;99.90;;;;;;6311345;28;20304;-68
2022/12/01 09:47:46;;;;;;;4.37;4.10;;;5.00;99.90;;;;;;6313729;28;20265;-69
2022/12/01 09:50:50;;;;;;;3.80;3.70;;;5.00;99.90;;;;;;6313569;28;20301;-68
2022/12/01 09:53:58;;;;;;;4.30;4.10;;;5.00;99.90;;;;;;6313343;28;20304;-69
2022/12/01 09:57:02;;;;;;;3.67;3.37;;;5.10;99.90;;;;;;6313741;28;20269;-69
2022/12/01 10:00:15;;;;;;;3.60;3.33;;;5.10;99.90;;;;;;6313135;28;20297;-69
2022/12/01 10:03:32;;;;;;;3.30;3.20;;;5.20;99.90;;;;;;6313561;28;20327;-69
2022/12/01 10:06:42;;;;;;;3.90;3.70;;;5.20;99.90;;;;;;6313735;28;20318;-69
2022/12/01 10:09:52;;;;;;;4.50;4.10;;;5.20;99.90;;;;;;6313503;28;20309;-68
2022/12/01 10:12:57;;;;;;;4.20;4.00;;;5.20;99.90;;;;;;6290897;28;20290;-69
2022/12/01 10:16:09;;;;;;;4.03;3.73;;;5.20;99.90;;;;;;6288364;28;20444;-69
2022/12/01 10:19:23;;;;;;;3.60;3.50;;;5.20;99.90;;;;;;6288107;28;20597;-70
2022/12/01 10:23:00;;;;;;;4.43;4.23;;;5.20;99.90;;;;;;6288747;28;20277;-68
2022/12/01 10:26:13;;;;;;;5.23;4.80;;;5.10;99.90;;;;;;6287304;28;20456;-69
2022/12/01 10:29:32;;;;;;;4.27;4.07;;;5.10;99.90;;;;;;6286594;28;20322;-69
2022/12/01 10:32:46;;;;;;;5.17;4.77;;;5.10;99.90;;;;;;6288320;28;20290;-69
2022/12/01 10:35:52;;;;;;;5.53;4.30;;;5.10;99.90;;;;;;6287881;28;20329;-69
2022/12/01 10:38:57;;;;;;;9.13;5.10;;;5.10;99.90;;;;;;6287763;28;20292;-69
2022/12/01 10:42:06;;;;;;;4.80;4.47;;;5.10;99.90;;;;;;6290819;28;20461;-69
2022/12/01 10:45:16;;;;;;;4.73;4.43;;;5.20;99.90;;;;;;6312943;28;20302;-68
2022/12/01 10:48:22;;;;;;;4.20;4.00;;;5.10;99.90;;;;;;6312003;28;20285;-69
2022/12/01 10:51:29;;;;;;;4.20;3.83;;;5.20;99.90;;;;;;6312469;28;20288;-68
2022/12/01 10:54:37;;;;;;;3.60;3.40;;;5.20;99.90;;;;;;6311955;28;20298;-69
2022/12/01 10:57:45;;;;;;;5.10;4.53;;;5.30;99.90;;;;;;6312312;28;20578;-68
2022/12/01 11:00:58;;;;;;;4.30;4.10;;;5.30;99.90;;;;;;6312052;28;20301;-69
2022/12/01 11:04:08;;;;;;;7.07;6.57;;;5.40;99.90;;;;;;6311825;28;20297;-69
2022/12/01 11:07:22;;;;;;;5.97;5.37;;;5.30;99.90;;;;;;6312208;28;20269;-69
2022/12/01 11:10:29;;;;;;;5.00;4.60;;;5.40;99.90;;;;;;6311489;28;20301;-69
2022/12/01 11:13:35;;;;;;;5.00;4.63;;;5.30;99.90;;;;;;6311507;28;20299;-69
2022/12/01 11:16:43;;;;;;;4.90;4.50;;;5.30;99.90;;;;;;6311694;28;20265;-69
2022/12/01 11:19:48;;;;;;;4.80;4.20;;;5.40;99.90;;;;;;6311426;28;20296;-67
2022/12/01 11:23:24;;;;;;;4.80;4.50;;;5.40;99.90;;;;;;6311687;28;20273;-69
2022/12/01 11:26:31;;;;;;;6.70;6.00;;;5.40;99.90;;;;;;6293036;28;20285;-69
2022/12/01 11:29:38;;;;;;;5.40;4.90;;;5.50;99.90;;;;;;6311592;28;20301;-69
2022/12/01 11:32:53;;;;;;;6.40;5.90;;;5.50;99.90;;;;;;6311570;28;20305;-69
2022/12/01 11:35:58;;;;;;;6.40;5.80;;;5.50;99.90;;;;;;6311528;28;20296;-69
2022/12/01 11:39:04;;;;;;;5.13;4.63;;;5.50;99.90;;;;;;6310542;28;20298;-69
2022/12/01 11:42:24;;;;;;;5.10;4.80;;;5.40;99.90;;;;;;6311289;28;20479;-70
2022/12/01 11:45:32;;;;;;;6.53;5.90;;;5.40;99.90;;;;;;6310818;28;20301;-68
2022/12/01 11:48:37;;;;;;;4.70;4.40;;;5.30;99.90;;;;;;6311071;28;20297;-69
2022/12/01 11:51:42;;;;;;;4.27;4.07;;;5.40;99.90;;;;;;6310715;28;20273;-70
2022/12/01 11:55:02;;;;;;;4.73;4.40;;;5.40;99.90;;;;;;6310280;28;20294;-69
2022/12/01 11:58:13;;;;;;;4.70;4.30;;;5.40;99.90;;;;;;6310606;28;20266;-69
2022/12/01 12:01:36;;;;;;;4.43;4.23;;;5.40;99.90;;;;;;6311730;28;20273;-69
2022/12/01 12:05:14;;;;;;;4.37;4.07;;;5.30;99.90;;;;;;6310826;28;20303;-68
2022/12/01 12:08:34;;;;;;;4.47;4.07;;;5.30;99.90;;;;;;6300969;28;20273;-69
2022/12/01 12:11:47;;;;;;;4.00;3.80;;;5.30;99.90;;;;;;6298942;28;20265;-69
2022/12/01 12:15:00;;;;;;;3.30;3.20;;;5.30;99.90;;;;;;6285379;28;20293;-70
2022/12/01 12:18:32;;;;;;;3.50;3.40;;;5.30;99.90;;;;;;6284083;28;20273;-69
2022/12/01 12:21:49;;;;;;;3.40;3.30;;;5.30;99.90;;;;;;6285574;28;20480;-70
2022/12/01 12:25:06;;;;;;;4.10;3.90;;;5.30;99.90;;;;;;6285043;28;20301;-70
2022/12/01 12:28:27;;;;;;;3.70;3.60;;;5.30;99.90;;;;;;6285733;28;20266;-69
2022/12/01 12:31:47;;;;;;;3.40;3.20;;;5.30;99.90;;;;;;6285438;28;20553;-70
2022/12/01 12:34:58;;;;;;;3.00;2.90;;;5.20;99.90;;;;;;6285502;28;20483;-70
2022/12/01 12:38:24;;;;;;;3.00;2.80;;;5.30;99.90;;;;;;6285127;28;20274;-69
2022/12/01 12:41:37;;;;;;;3.00;2.80;;;5.30;99.90;;;;;;6285513;28;20267;-69
2022/12/01 12:44:49;;;;;;;3.07;2.87;;;5.30;99.90;;;;;;6310126;28;20303;-69
2022/12/01 12:48:14;;;;;;;3.00;2.80;;;5.40;99.90;;;;;;6315961;28;20265;-69
2022/12/01 12:51:22;;;;;;;3.17;2.97;;;5.40;99.90;;;;;;6314890;28;20275;-70
2022/12/01 12:54:31;;;;;;;3.90;3.60;;;5.30;99.90;;;;;;6314869;28;20298;-69
2022/12/01 12:57:39;;;;;;;3.30;3.20;;;5.30;99.90;;;;;;6315372;28;20565;-69
2022/12/01 13:00:50;;;;;;;3.33;3.13;;;5.30;99.90;;;;;;6314787;28;20448;-69
2022/12/01 13:04:01;;;;;;;3.40;3.20;;;5.20;99.90;;;;;;6314788;28;20319;-68
2022/12/01 13:07:20;;;;;;;3.50;3.30;;;5.30;99.90;;;;;;6315241;28;20449;-68
2022/12/01 13:10:32;;;;;;;3.63;3.30;;;5.30;99.90;;;;;;6313305;28;20304;-68
2022/12/01 13:13:42;;;;;;;3.73;3.43;;;5.30;99.90;;;;;;6289355;28;20301;-69
2022/12/01 13:16:51;;;;;;;5.77;3.80;;;5.20;99.90;;;;;;6290033;28;20274;-69
2022/12/01 13:19:56;;;;;;;3.97;3.67;;;5.30;99.90;;;;;;6289227;28;20585;-69
2022/12/01 13:23:01;;;;;;;5.47;3.50;;;5.20;99.90;;;;;;6289476;28;20279;-69
2022/12/01 13:26:08;;;;;;;4.10;3.80;;;5.30;99.90;;;;;;6290020;28;20265;-69
2022/12/01 13:29:18;;;;;;;4.67;4.20;;;5.30;99.90;;;;;;6289415;28;20302;-69
2022/12/01 13:32:39;;;;;;;4.00;3.80;;;5.30;99.90;;;;;;6289689;28;20269;-70
2022/12/01 13:35:43;;;;;;;4.90;4.40;;;5.30;99.90;;;;;;6271267;28;20462;-69
2022/12/01 13:38:58;;;;;;;5.50;4.00;;;5.30;99.90;;;;;;6288866;28;20300;-69
2022/12/01 13:42:07;;;;;;;4.00;3.80;;;5.30;99.90;;;;;;6291811;28;20298;-69
2022/12/01 13:45:18;;;;;;;4.57;4.10;;;5.30;99.90;;;;;;6312173;28;20304;-69
2022/12/01 13:48:29;;;;;;;3.67;3.43;;;5.20;99.90;;;;;;6312197;28;20294;-69
2022/12/01 13:52:17;;;;;;;4.27;3.93;;;5.20;99.90;;;;;;6312670;28;20268;-69
2022/12/01 13:55:28;;;;;;;3.93;3.73;;;5.20;99.90;;;;;;6312393;28;20577;-69
2022/12/01 13:58:46;;;;;;;5.27;3.80;;;5.20;99.90;;;;;;6311700;28;20308;-69
2022/12/01 14:02:14;;;;;;;4.47;3.93;;;5.10;99.90;;;;;;6312872;28;20265;-69
2022/12/01 14:05:55;;;;;;;3.40;3.20;;;5.10;99.90;;;;;;6311720;28;20290;-69
2022/12/01 14:09:02;;;;;;;3.60;3.37;;;5.10;99.90;;;;;;6238303;28;20299;-70
2022/12/01 14:12:16;;;;;;;4.37;3.40;;;5.00;99.90;;;;;;6297009;28;20437;-69
2022/12/01 14:15:41;;;;;;;3.77;3.10;;;5.10;99.90;;;;;;6286805;28;20300;-70
2022/12/01 14:18:52;;;;;;;4.03;3.73;;;5.10;99.90;;;;;;6287038;28;20297;-69
2022/12/01 14:21:58;;;;;;;3.90;3.60;;;5.00;99.90;;;;;;6286974;28;20273;-69
2022/12/01 14:25:06;;;;;;;4.30;3.50;;;5.00;99.90;;;;;;6287088;28;20298;-70
2022/12/01 14:28:17;;;;;;;3.70;3.60;;;5.00;99.90;;;;;;6285193;28;20295;-69
2022/12/01 14:31:21;;;;;;;5.70;3.90;;;5.10;99.90;;;;;;6286912;28;20265;-69
2022/12/01 14:34:29;;;;;;;7.30;4.10;;;5.10;99.90;;;;;;6286401;28;20614;-69
2022/12/01 14:37:48;;;;;;;5.43;3.77;;;5.10;99.90;;;;;;6286995;28;20276;-68
2022/12/01 14:40:53;;;;;;;3.63;3.40;;;5.10;99.90;;;;;;6286633;28;20293;-69
2022/12/01 14:44:04;;;;;;;3.93;3.83;;;5.10;99.90;;;;;;6265438;28;1147662;-69
2022/12/01 14:47:16;;;;;;;4.13;3.73;;;5.10;99.90;;;;;;6312378;28;20270;-69
2022/12/01 14:50:24;;;;;;;3.93;3.43;;;5.10;99.90;;;;;;6312275;28;20297;-69
2022/12/01 14:53:33;;;;;;;3.70;3.50;;;5.00;99.90;;;;;;6312646;28;20306;-68
2022/12/01 14:56:38;;;;;;;3.20;3.10;;;5.10;99.90;;;;;;6312742;28;20270;-69
2022/12/01 14:59:43;;;;;;;3.70;3.40;;;5.20;99.90;;;;;;6311877;28;20317;-69
2022/12/01 15:02:52;;;;;;;3.93;3.50;;;5.20;99.90;;;;;;6312266;28;20267;-70
2022/12/01 15:05:57;;;;;;;3.67;3.47;;;5.10;99.90;;;;;;6311943;28;20301;-69
2022/12/01 15:09:10;;;;;;;4.10;3.90;;;5.20;99.90;;;;;;6310795;28;20304;-68
2022/12/01 15:12:35;;;;;;;4.03;3.83;;;5.20;99.90;;;;;;6311669;28;20293;-69
2022/12/01 15:15:51;;;;;;;4.30;3.97;;;5.20;99.90;;;;;;6311372;28;20301;-68
2022/12/01 15:18:56;;;;;;;5.10;4.77;;;5.20;99.90;;;;;;6311604;28;20296;-68
2022/12/01 15:22:12;;;;;;;15.73;8.87;;;5.10;99.90;;;;;;6311961;28;20277;-69
2022/12/01 15:25:19;;;;;;;13.50;7.93;;;5.10;99.90;;;;;;6311384;28;20301;-69
2022/12/01 15:28:31;;;;;;;11.77;8.20;;;5.10;99.90;;;;;;6310764;28;20362;-69
2022/12/01 15:31:36;;;;;;;6.27;5.70;;;5.10;99.90;;;;;;6311470;28;20268;-68
2022/12/01 15:34:44;;;;;;;7.93;6.23;;;5.20;99.90;;;;;;6310683;28;20331;-68
2022/12/01 15:37:49;;;;;;;5.03;4.83;;;5.30;99.90;;;;;;6311439;28;20276;-70
2022/12/01 15:40:56;;;;;;;5.53;5.13;;;5.20;99.90;;;;;;6310881;28;20300;-69
2022/12/01 15:44:27;;;;;;;4.90;4.60;;;5.20;99.90;;;;;;6310751;28;20307;-69
2022/12/01 15:47:36;;;;;;;5.20;4.73;;;5.30;99.90;;;;;;6310918;28;20268;-70
2022/12/01 15:50:42;;;;;;;5.47;4.97;;;5.10;99.90;;;;;;6310473;28;20306;-71
2022/12/01 15:53:53;;;;;;;6.67;5.43;;;5.00;99.90;;;;;;6310157;28;20621;-68
2022/12/01 15:56:59;;;;;;;7.53;6.80;;;5.10;99.90;;;;;;6311118;28;20564;-69
2022/12/01 16:00:05;;;;;;;6.23;5.40;;;5.10;99.90;;;;;;6310650;28;20293;-69
2022/12/01 16:03:16;;;;;;;5.90;5.20;;;5.10;99.90;;;;;;6310522;28;20363;-68
2022/12/01 16:06:25;;;;;;;5.37;4.87;;;5.10;99.90;;;;;;6311095;28;20274;-69
2022/12/01 16:09:34;;;;;;;5.87;5.30;;;5.10;99.90;;;;;;6310776;28;20322;-70
2022/12/01 16:12:40;;;;;;;5.70;5.20;;;5.20;99.90;;;;;;6284799;28;20314;-69
2022/12/01 16:15:45;;;;;;;5.77;5.27;;;5.20;99.90;;;;;;6285422;28;20313;-70
2022/12/01 16:18:55;;;;;;;5.70;5.20;;;5.10;99.90;;;;;;6285362;28;20614;-69
2022/12/01 16:22:13;;;;;;;6.13;5.63;;;5.10;99.90;;;;;;6285880;28;20269;-69
2022/12/01 16:25:28;;;;;;;6.40;5.73;;;5.10;99.90;;;;;;6285539;28;20299;-68
2022/12/01 16:28:35;;;;;;;5.80;5.30;;;5.10;99.90;;;;;;6285450;28;20479;-69
2022/12/01 16:31:39;;;;;;;5.90;5.40;;;5.10;99.90;;;;;;6284622;28;20284;-69
2022/12/01 16:35:05;;;;;;;5.70;5.20;;;5.10;99.90;;;;;;6285208;28;20478;-69
2022/12/01 16:38:19;;;;;;;6.80;5.60;;;5.10;99.90;;;;;;6284992;28;20272;-69